createdAt,value
2018-07-14T00:00:58.914Z,4.25
2018-07-14T00:06:53.926Z,5.56
2018-07-14T00:12:48.993Z,4.18
2018-07-14T00:18:43.938Z,4.4
2018-07-14T00:24:38.956Z,3.51
2018-07-14T00:30:33.939Z,3.39
2018-07-14T00:36:28.930Z,3.42
2018-07-14T00:42:23.933Z,3.7
2018-07-14T00:48:18.941Z,3.61
2018-07-14T00:54:13.944Z,3.5
2018-07-14T01:00:09.374Z,3.34
2018-07-14T01:06:03.949Z,3.21
2018-07-14T01:11:58.929Z,3.75
2018-07-14T01:17:54.087Z,3.77
2018-07-14T01:23:48.997Z,3.87
2018-07-14T01:29:43.932Z,4.22
2018-07-14T01:35:38.944Z,3.91
2018-07-14T01:41:33.955Z,4.31
2018-07-14T01:47:28.958Z,3.98
2018-07-14T01:53:23.953Z,3.64
2018-07-14T01:59:18.957Z,3.63
2018-07-14T02:05:13.958Z,3.66
2018-07-14T02:11:08.976Z,3.22
2018-07-14T02:17:03.979Z,3.36
2018-07-14T02:22:58.982Z,4.1
2018-07-14T02:28:53.981Z,3.87
2018-07-14T02:34:49.034Z,4.33
2018-07-14T02:40:43.988Z,4.09
2018-07-14T02:46:39.048Z,4.38
2018-07-14T02:52:34.003Z,3.9
2018-07-14T02:58:29.002Z,4.41
2018-07-14T03:04:24.010Z,3.86
2018-07-14T03:10:19.023Z,4.23
2018-07-14T03:16:14.016Z,3.78
2018-07-14T03:22:09.019Z,3.76
2018-07-14T03:28:04.030Z,4.31
2018-07-14T03:33:59.306Z,4.39
2018-07-14T03:39:54.035Z,4.49
2018-07-14T03:45:49.062Z,4.44
2018-07-14T03:51:44.066Z,4.66
2018-07-14T03:57:39.040Z,4.07
2018-07-14T04:03:34.043Z,4
2018-07-14T04:09:29.041Z,4.53
2018-07-14T04:15:24.039Z,4.12
2018-07-14T04:21:19.097Z,4.04
2018-07-14T04:27:14.060Z,5.14
2018-07-14T04:33:09.033Z,3.64
2018-07-14T04:39:04.072Z,4.12
2018-07-14T04:44:59.062Z,4.8
2018-07-14T04:50:54.078Z,9.34
2018-07-14T04:56:49.094Z,5.06
2018-07-14T05:02:44.065Z,4.9
2018-07-14T05:08:39.061Z,5.28
2018-07-14T05:14:34.085Z,4.83
2018-07-14T05:20:29.082Z,5.44
2018-07-14T05:26:24.075Z,5.27
2018-07-14T05:32:19.095Z,6.28
2018-07-14T05:38:14.075Z,6.09
2018-07-14T05:44:09.173Z,6.55
2018-07-14T05:50:04.105Z,6.31
2018-07-14T05:55:59.108Z,5.85
2018-07-14T06:01:54.185Z,5.61
2018-07-14T06:07:49.227Z,4.94
2018-07-14T06:13:44.116Z,7.59
2018-07-14T06:19:39.202Z,9.26
2018-07-14T06:25:34.116Z,6.65
2018-07-14T06:31:29.140Z,6.33
2018-07-14T06:37:24.171Z,5.73
2018-07-14T06:43:19.152Z,6.29
2018-07-14T06:49:14.133Z,4.39
2018-07-14T06:55:09.137Z,5.7
2018-07-14T07:01:04.141Z,5.74
2018-07-14T07:06:59.154Z,3.76
2018-07-14T07:12:54.156Z,1.7
2018-07-14T07:18:49.183Z,1.88
2018-07-14T07:24:44.135Z,2.23
2018-07-14T07:30:39.153Z,2.06
2018-07-14T07:36:34.158Z,4.09
2018-07-14T07:42:29.374Z,2.01
2018-07-14T07:48:24.238Z,2
2018-07-14T07:54:19.209Z,1.96
2018-07-14T08:00:14.201Z,2.24
2018-07-14T08:06:09.176Z,3.95
2018-07-14T08:12:04.189Z,5.07
2018-07-14T08:17:59.239Z,1.87
2018-07-14T08:23:54.241Z,3.32
2018-07-14T08:29:49.195Z,2.84
2018-07-14T08:35:44.201Z,2.78
2018-07-14T08:41:39.172Z,2.35
2018-07-14T08:47:34.218Z,4.63
2018-07-14T08:53:29.255Z,3.73
2018-07-14T08:59:24.231Z,2.85
2018-07-14T09:05:19.267Z,3.82
2018-07-14T09:11:14.220Z,4.17
2018-07-14T09:17:09.248Z,3.73
2018-07-14T09:23:04.222Z,6.08
2018-07-14T09:28:59.226Z,4.68
2018-07-14T09:34:54.374Z,5.17
2018-07-14T09:40:49.220Z,4.69
2018-07-14T09:46:44.247Z,3.02
2018-07-14T09:52:39.220Z,5.36
2018-07-14T09:58:34.285Z,4.57
2018-07-14T10:04:29.254Z,2.95
2018-07-14T10:10:24.253Z,4.92
2018-07-14T10:16:19.296Z,5.06
2018-07-14T10:22:14.319Z,5.23
2018-07-14T10:28:09.275Z,4.76
2018-07-14T10:34:04.364Z,4.33
2018-07-14T10:39:59.275Z,3.77
2018-07-14T10:45:54.280Z,4.6
2018-07-14T10:51:49.309Z,4.63
2018-07-14T10:57:44.277Z,4.79
2018-07-14T11:03:39.277Z,2.78
2018-07-14T11:09:34.299Z,3.23
2018-07-14T11:15:29.280Z,3.69
2018-07-14T11:21:24.326Z,3.85
2018-07-14T11:27:19.293Z,2.94
2018-07-14T11:33:14.365Z,4.15
2018-07-14T11:39:09.354Z,3.41
2018-07-14T11:45:04.319Z,5.1
2018-07-14T11:50:59.338Z,5.11
2018-07-14T11:56:54.330Z,4.8
2018-07-14T12:02:49.355Z,4.46
2018-07-14T12:08:44.316Z,4.73
2018-07-14T12:14:39.323Z,2.87
2018-07-14T12:20:34.337Z,3.97
2018-07-14T12:26:29.338Z,4.09
2018-07-14T12:32:24.336Z,4.47
2018-07-14T12:38:19.337Z,3.15
2018-07-14T12:44:14.340Z,3.34
2018-07-14T12:50:09.356Z,2.59
2018-07-14T12:56:04.353Z,4.13
2018-07-14T13:01:59.325Z,4.64
2018-07-14T13:07:54.353Z,4.74
2018-07-14T13:13:49.370Z,4.33
2018-07-14T13:19:44.383Z,3.15
2018-07-14T13:25:39.378Z,2.29
2018-07-14T13:31:34.363Z,4.43
2018-07-14T13:37:29.441Z,2.77
2018-07-14T13:43:24.364Z,4.22
2018-07-14T13:49:19.378Z,4.1
2018-07-14T13:55:14.393Z,5.24
2018-07-14T14:01:09.407Z,3.98
2018-07-14T14:07:04.412Z,2.94
2018-07-14T14:12:59.439Z,4.37
2018-07-14T14:18:54.429Z,3.03
2018-07-14T14:24:49.393Z,2.47
2018-07-14T14:30:44.401Z,3.06
2018-07-14T14:36:39.405Z,3.34
2018-07-14T14:42:34.408Z,4.2
2018-07-14T14:48:29.413Z,2.87
2018-07-14T14:54:24.412Z,3.47
2018-07-14T15:00:19.574Z,4.77
2018-07-14T15:06:14.400Z,3.95
2018-07-14T15:12:09.479Z,2.57
2018-07-14T15:18:04.432Z,2.88
2018-07-14T15:23:59.425Z,3.25
2018-07-14T15:29:54.487Z,3.08
2018-07-14T15:35:49.462Z,3.09
2018-07-14T15:41:44.444Z,2.7
2018-07-14T15:47:39.492Z,2.49
2018-07-14T15:53:34.461Z,2.87
2018-07-14T15:59:29.458Z,2.92
2018-07-14T16:05:24.450Z,3
2018-07-14T16:11:19.518Z,2.81
2018-07-14T16:17:14.493Z,3.13
2018-07-14T16:23:09.460Z,2.64
2018-07-14T16:29:04.496Z,3.75
2018-07-14T16:34:59.477Z,3.45
2018-07-14T16:40:54.469Z,4
2018-07-14T16:46:49.488Z,4.1
2018-07-14T16:52:44.476Z,5.14
2018-07-14T16:58:39.516Z,2.98
2018-07-14T17:04:34.541Z,2.63
2018-07-14T17:10:29.535Z,4
2018-07-14T17:16:24.492Z,2.74
2018-07-14T17:22:19.511Z,2.76
2018-07-14T17:28:14.611Z,3.92
2018-07-14T17:34:09.513Z,4.7
2018-07-14T17:40:04.548Z,3.61
2018-07-14T17:45:59.640Z,4.36
2018-07-14T17:51:54.603Z,2.68
2018-07-14T17:57:49.590Z,4.08
2018-07-14T18:03:44.526Z,6.3
2018-07-14T18:09:39.567Z,3.92
2018-07-14T18:15:34.547Z,3.91
2018-07-14T18:21:29.524Z,3.2
2018-07-14T18:27:24.610Z,3.3
2018-07-14T18:33:19.540Z,3.2
2018-07-14T18:39:14.555Z,3.18
2018-07-14T18:45:09.551Z,4.49
2018-07-14T18:51:04.577Z,4.23
2018-07-14T18:56:59.553Z,5.48
2018-07-14T19:02:58.660Z,3.06
2018-07-14T19:08:53.790Z,5.38
2018-07-14T19:14:48.704Z,7.05
2018-07-14T19:20:43.670Z,5.77
2018-07-14T19:26:34.667Z,7.08
2018-07-14T19:32:29.610Z,12.17
2018-07-14T19:38:24.589Z,6.32
2018-07-14T19:44:19.608Z,6.9
2018-07-14T19:50:14.597Z,5.96
2018-07-14T19:56:09.706Z,6.92
2018-07-14T20:02:04.606Z,6.08
2018-07-14T20:07:59.605Z,6.09
2018-07-14T20:13:54.612Z,6.27
2018-07-14T20:19:49.638Z,5.81
2018-07-14T20:25:44.627Z,6.07
2018-07-14T20:31:39.608Z,5.79
2018-07-14T20:37:34.632Z,5.72
2018-07-14T20:43:29.673Z,6.84
2018-07-14T20:49:24.623Z,6.75
2018-07-14T20:55:19.650Z,7.93
2018-07-14T21:01:14.638Z,5.27
2018-07-14T21:07:09.665Z,5.94
2018-07-14T21:13:04.643Z,4.81
2018-07-14T21:18:59.641Z,4.99
2018-07-14T21:24:54.634Z,6.4
2018-07-14T21:30:49.649Z,5.34
2018-07-14T21:36:44.651Z,5.18
2018-07-14T21:42:39.646Z,4.45
2018-07-14T21:48:34.647Z,4.12
2018-07-14T21:54:29.656Z,4.09
2018-07-14T22:00:24.664Z,3.88
2018-07-14T22:06:19.721Z,4.46
2018-07-14T22:12:14.826Z,4.03
2018-07-14T22:18:09.700Z,4.43
2018-07-14T22:24:04.693Z,4.68
2018-07-14T22:29:59.725Z,4.84
2018-07-14T22:35:54.719Z,4.59
2018-07-14T22:41:49.718Z,4.8
2018-07-14T22:47:44.708Z,5.25
2018-07-14T22:53:39.697Z,5.04
2018-07-14T22:59:34.751Z,5.54
2018-07-14T23:05:29.706Z,4.8
2018-07-14T23:11:24.708Z,5.19
2018-07-14T23:17:19.712Z,4.8
2018-07-14T23:23:14.814Z,5.49
2018-07-14T23:29:09.711Z,5.31
2018-07-14T23:35:04.734Z,5.56
2018-07-14T23:40:59.733Z,5.3
2018-07-14T23:46:54.741Z,4.88
2018-07-14T23:52:49.776Z,4.29
2018-07-14T23:58:44.737Z,5
